Aeroporto :
LOGIN :

Iscrizione | Disclaimer

   EN    FR    IT 

 










Sommario :    VFR   VFR Marginale   IFR   IFR Intensivo   IFR Molto Intensivo
Visibilità : 
Base nubi : 
>= 8 km
>= 3000ft
5 / 8 km
1000 / 3000 ft
1500m / 5 km
500 / 1000 ft
800 / 1500m
200 / 500 ft
< 800m
< 200 ft
Simboli :   Temporali  Nebbia  Neve Forte  Precipitazioni Forti  Vento > 20 kt
SIGMETs :   Varie  Temporali  Ghiacco  Turbolenza  Onda orograficha  Ceneri Vulcaniche






- Altitudine del aeroporto : 989 ft
- Codice IATA : TRN


LIMF - Torino Caselle

ULTIMO METAR :
  • 121750Z 03004KT 4000 BR OVC018 02/00 Q1003

METARs OBSOLETI :
  • 121720Z 36004KT 4000 BR OVC020 02/00 Q1004
  • 121650Z 33003KT 280V010 4000 BR OVC020 03/M00 Q1004
  • 121620Z 29003KT 260V340 4000 BR OVC020 03/M01 Q1004
  • 121550Z 01004KT 340V040 4000 BR OVC020 03/M00 Q1004
  • 121520Z 06003KT 030V100 4000 BR OVC017 03/M01 Q1005

TAF TAF LIMF
Valido dal 12 a 18 ore il 13 a 18 ore UTC


121700Z 1218/1318 VRB05KT 4000 BR OVC020
BECMG 1300/1303 1000 SN OVC005
BECMG 1312/1315 28010KT 7000 NSW SCT060



MetMap, La meteo Aeronautica in un colpo d'occhio ! - Copyright ORBIFLY Dicembre 2007 - Disclaimer

ORBIFLY MET'MAP TEAM :

Programmazione e sviluppo : Alexandra Zaïnal
Concezione : Baudouin d'Aumeries
Aiuto per la programmazione : Marc-Olivier Méhu
Supporto tecnico e logistico : Manuel Goepfert
Aiuto per la traduzione : Arnaldo La Scala

Contatto : metmap@orbifly.com




FONTI E CREDITI :

   NOAA